Latest METARs, TAFs and NOTAMs for EGSS


---------------------------------------------------------------------------
	(OBSERVATIONS)
EGSS 181020Z AUTO 07011KT 040V100 9999 NCD 08/06 Q1029=
EGSS 180950Z AUTO 07009KT 9999 NCD 07/05 Q1029=
EGSS 180920Z AUTO 06007KT 9000 NCD 06/05 Q1029=
EGSS 180850Z AUTO 06008KT 9000 NCD 06/04 Q1029=
EGSS 180820Z AUTO 06008KT 7000 NCD 05/04 Q1029=
EGSS 180750Z AUTO 06006KT 7000 NCD 03/03 Q1029=
---------------------------------------------------------------------------
	(FC)
Sorry, FC For EGSS Not Found
---------------------------------------------------------------------------
	(TERMINAL AREA FORECAST)
EGSS 180506Z 1806/1912 07008KT 5000 BR NSC
    TEMPO 1806/1809 3000
    BECMG 1809/1811 CAVOK
    TEMPO 1817/1901 8000
    BECMG 1900/1903 BKN018
    PROB40 TEMPO 1901/1905 BKN013
    PROB30 TEMPO 1907/1912 8000 -SHRA=
---------------------------------------------------------------------------
	(NOTAMS)


EGSS A3551/18 TAXIWAY JULIET CLOSED BETWEEN LINK BRAVO AND LINK
    CHARLIE DUE WIP. 06 NOV 09:00 2018 UNTIL 19 NOV 18:00 2018.
    CREATED: 05 NOV 14:14 2018

EGSS A3552/18 TWY ECHO EAST AND MIDDLE LINES ARE CLOSED TO ALL
    TRAFFIC STANDS 90, 90L, 90R, 91, 91L AND 91R ARE CLOSED.
    05 NOV 14:17 2018 UNTIL 24 NOV 12:00 2018. CREATED: 05 NOV
    14:17 2018

EGSS A3569/18 CRANES OPR AT PSN 515336N 0001601E (066 DEG MAG
    2381M FM STANSTED ARP). MAX OPR HGT 30M/98FT AGL 136M/446FT
    AMSL. JIBS LIT WITH RED OBS LGT. 06 NOV 11:10 2018 UNTIL
    31 DEC 18:00 2018. CREATED: 06 NOV 11:11 2018

EGSS A3603/18 CRANE IN LOW FLYING AREA THAMES VALLEY AVOIDANCE
    AREA WI 1NM RADIUS OF PSN 514601N 0001252W (HATFIELD, HERTFORDSHIRE)
    MAX HEIGHT 190FT AGL/452FT AMSL. 18/11/021/LFTP. 14 NOV 00:01
    2018 UNTIL 14 FEB 23:59 2019. CREATED: 07 NOV 13:47 2018

EGSS A3642/18 RED OBST LIGHT U/S ON THE DIAMOND HANGAR HELICOPTER
    VRP. 11 NOV 08:30 2018 UNTIL 11 FEB 08:30 2019. CREATED:
    11 NOV 08:37 2018

---------------------------------------------------------------------------